sensor_id;sensor_type;location;lat;lon;timestamp;P1;durP1;ratioP1;P2;durP2;ratioP2
45548;SDS011;31270;48.328;10.096;2022-10-29T00:01:13;13.57;;;7.73;;
45548;SDS011;31270;48.328;10.096;2022-10-29T00:03:38;15.60;;;7.70;;
45548;SDS011;31270;48.328;10.096;2022-10-29T00:06:05;13.03;;;7.90;;
45548;SDS011;31270;48.328;10.096;2022-10-29T00:08:35;12.60;;;7.30;;
45548;SDS011;31270;48.328;10.096;2022-10-29T00:11:05;14.33;;;7.63;;
45548;SDS011;31270;48.328;10.096;2022-10-29T00:13:31;14.33;;;7.47;;
45548;SDS011;31270;48.328;10.096;2022-10-29T00:15:57;15.77;;;8.23;;
45548;SDS011;31270;48.328;10.096;2022-10-29T00:18:23;11.87;;;7.73;;
45548;SDS011;31270;48.328;10.096;2022-10-29T00:20:49;13.93;;;7.63;;
45548;SDS011;31270;48.328;10.096;2022-10-29T00:23:23;12.80;;;7.60;;
45548;SDS011;31270;48.328;10.096;2022-10-29T00:25:48;15.43;;;7.90;;
45548;SDS011;31270;48.328;10.096;2022-10-29T00:28:14;13.53;;;7.73;;
45548;SDS011;31270;48.328;10.096;2022-10-29T00:30:39;12.27;;;7.67;;
45548;SDS011;31270;48.328;10.096;2022-10-29T00:33:05;15.47;;;8.60;;
45548;SDS011;31270;48.328;10.096;2022-10-29T00:35:31;14.17;;;7.80;;
45548;SDS011;31270;48.328;10.096;2022-10-29T00:37:56;16.43;;;7.70;;
45548;SDS011;31270;48.328;10.096;2022-10-29T00:40:22;18.60;;;7.63;;
45548;SDS011;31270;48.328;10.096;2022-10-29T00:42:47;13.40;;;7.70;;
45548;SDS011;31270;48.328;10.096;2022-10-29T00:45:16;11.87;;;7.47;;
45548;SDS011;31270;48.328;10.096;2022-10-29T00:47:44;12.93;;;7.60;;
45548;SDS011;31270;48.328;10.096;2022-10-29T00:50:14;10.83;;;6.87;;
45548;SDS011;31270;48.328;10.096;2022-10-29T00:52:41;15.13;;;7.50;;
45548;SDS011;31270;48.328;10.096;2022-10-29T00:55:09;10.60;;;7.47;;
45548;SDS011;31270;48.328;10.096;2022-10-29T00:57:40;15.43;;;7.90;;
45548;SDS011;31270;48.328;10.096;2022-10-29T01:00:13;16.57;;;7.90;;
45548;SDS011;31270;48.328;10.096;2022-10-29T01:02:39;13.90;;;7.57;;
45548;SDS011;31270;48.328;10.096;2022-10-29T01:05:06;18.33;;;8.30;;
45548;SDS011;31270;48.328;10.096;2022-10-29T01:07:34;14.97;;;8.23;;
45548;SDS011;31270;48.328;10.096;2022-10-29T01:10:00;12.03;;;7.73;;
45548;SDS011;31270;48.328;10.096;2022-10-29T01:12:41;12.33;;;7.63;;
45548;SDS011;31270;48.328;10.096;2022-10-29T01:18:04;14.77;;;7.37;;
45548;SDS011;31270;48.328;10.096;2022-10-29T01:20:47;13.30;;;7.67;;
45548;SDS011;31270;48.328;10.096;2022-10-29T01:26:35;9.93;;;7.50;;
45548;SDS011;31270;48.328;10.096;2022-10-29T01:32:14;13.20;;;8.00;;
45548;SDS011;31270;48.328;10.096;2022-10-29T01:37:47;12.77;;;7.77;;
45548;SDS011;31270;48.328;10.096;2022-10-29T01:40:27;12.73;;;7.53;;
45548;SDS011;31270;48.328;10.096;2022-10-29T01:43:04;15.47;;;7.33;;
45548;SDS011;31270;48.328;10.096;2022-10-29T01:45:37;15.10;;;7.30;;
45548;SDS011;31270;48.328;10.096;2022-10-29T01:48:14;11.27;;;7.57;;
45548;SDS011;31270;48.328;10.096;2022-10-29T01:50:44;13.00;;;7.30;;
45548;SDS011;31270;48.328;10.096;2022-10-29T01:53:13;10.67;;;7.43;;
45548;SDS011;31270;48.328;10.096;2022-10-29T01:55:41;12.43;;;7.87;;
45548;SDS011;31270;48.328;10.096;2022-10-29T01:58:07;13.10;;;7.03;;
45548;SDS011;31270;48.328;10.096;2022-10-29T02:00:48;10.87;;;7.23;;
45548;SDS011;31270;48.328;10.096;2022-10-29T02:03:43;13.70;;;6.87;;
45548;SDS011;31270;48.328;10.096;2022-10-29T02:14:45;13.37;;;7.33;;
45548;SDS011;31270;48.328;10.096;2022-10-29T02:17:14;12.40;;;7.37;;
45548;SDS011;31270;48.328;10.096;2022-10-29T02:19:40;11.90;;;7.27;;
45548;SDS011;31270;48.328;10.096;2022-10-29T02:22:05;10.33;;;7.27;;
45548;SDS011;31270;48.328;10.096;2022-10-29T02:24:31;11.50;;;6.90;;
45548;SDS011;31270;48.328;10.096;2022-10-29T02:26:56;11.83;;;7.50;;
45548;SDS011;31270;48.328;10.096;2022-10-29T02:29:22;11.03;;;6.70;;
45548;SDS011;31270;48.328;10.096;2022-10-29T02:31:48;14.80;;;7.40;;
45548;SDS011;31270;48.328;10.096;2022-10-29T02:34:13;15.17;;;7.77;;
45548;SDS011;31270;48.328;10.096;2022-10-29T02:36:39;16.73;;;7.43;;
45548;SDS011;31270;48.328;10.096;2022-10-29T02:39:05;14.00;;;7.30;;
45548;SDS011;31270;48.328;10.096;2022-10-29T02:41:31;11.93;;;7.50;;
45548;SDS011;31270;48.328;10.096;2022-10-29T02:43:56;13.83;;;8.10;;
45548;SDS011;31270;48.328;10.096;2022-10-29T02:46:22;13.70;;;7.23;;
45548;SDS011;31270;48.328;10.096;2022-10-29T02:48:49;18.80;;;7.00;;
45548;SDS011;31270;48.328;10.096;2022-10-29T02:51:16;16.93;;;7.47;;
45548;SDS011;31270;48.328;10.096;2022-10-29T02:53:42;11.67;;;8.20;;
45548;SDS011;31270;48.328;10.096;2022-10-29T02:56:08;11.07;;;7.00;;
45548;SDS011;31270;48.328;10.096;2022-10-29T02:58:34;14.57;;;7.10;;
45548;SDS011;31270;48.328;10.096;2022-10-29T03:01:00;11.33;;;7.00;;
45548;SDS011;31270;48.328;10.096;2022-10-29T03:03:25;11.27;;;7.23;;
45548;SDS011;31270;48.328;10.096;2022-10-29T03:05:51;10.70;;;6.30;;
45548;SDS011;31270;48.328;10.096;2022-10-29T03:08:17;9.13;;;6.67;;
45548;SDS011;31270;48.328;10.096;2022-10-29T03:10:43;11.13;;;6.77;;
45548;SDS011;31270;48.328;10.096;2022-10-29T03:13:09;11.80;;;6.57;;
45548;SDS011;31270;48.328;10.096;2022-10-29T03:15:35;13.80;;;7.60;;
45548;SDS011;31270;48.328;10.096;2022-10-29T03:18:01;13.27;;;6.93;;
45548;SDS011;31270;48.328;10.096;2022-10-29T03:20:29;10.90;;;6.63;;
45548;SDS011;31270;48.328;10.096;2022-10-29T03:22:54;10.00;;;7.27;;
45548;SDS011;31270;48.328;10.096;2022-10-29T03:25:20;8.93;;;6.67;;
45548;SDS011;31270;48.328;10.096;2022-10-29T03:27:46;14.07;;;7.27;;
45548;SDS011;31270;48.328;10.096;2022-10-29T03:30:13;12.20;;;6.57;;
45548;SDS011;31270;48.328;10.096;2022-10-29T03:32:43;14.20;;;7.00;;
45548;SDS011;31270;48.328;10.096;2022-10-29T03:35:11;14.93;;;6.97;;
45548;SDS011;31270;48.328;10.096;2022-10-29T03:37:38;13.20;;;7.27;;
45548;SDS011;31270;48.328;10.096;2022-10-29T03:40:04;12.50;;;7.00;;
45548;SDS011;31270;48.328;10.096;2022-10-29T03:42:30;9.40;;;6.57;;
45548;SDS011;31270;48.328;10.096;2022-10-29T03:44:59;14.97;;;7.67;;
45548;SDS011;31270;48.328;10.096;2022-10-29T03:47:26;9.60;;;6.83;;
45548;SDS011;31270;48.328;10.096;2022-10-29T03:49:53;12.77;;;7.23;;
45548;SDS011;31270;48.328;10.096;2022-10-29T03:52:19;14.97;;;7.13;;
45548;SDS011;31270;48.328;10.096;2022-10-29T03:54:45;14.33;;;6.97;;
45548;SDS011;31270;48.328;10.096;2022-10-29T03:57:10;15.30;;;7.17;;
45548;SDS011;31270;48.328;10.096;2022-10-29T03:59:36;15.33;;;7.27;;
45548;SDS011;31270;48.328;10.096;2022-10-29T04:02:02;13.87;;;7.23;;
45548;SDS011;31270;48.328;10.096;2022-10-29T04:04:27;10.83;;;6.60;;
45548;SDS011;31270;48.328;10.096;2022-10-29T04:06:53;12.80;;;6.63;;
45548;SDS011;31270;48.328;10.096;2022-10-29T04:09:19;11.87;;;6.87;;
45548;SDS011;31270;48.328;10.096;2022-10-29T04:11:44;10.37;;;6.37;;
45548;SDS011;31270;48.328;10.096;2022-10-29T04:14:10;12.03;;;6.27;;
45548;SDS011;31270;48.328;10.096;2022-10-29T04:16:35;14.47;;;6.80;;
45548;SDS011;31270;48.328;10.096;2022-10-29T04:19:01;14.80;;;7.30;;
45548;SDS011;31270;48.328;10.096;2022-10-29T04:21:27;15.97;;;6.37;;
45548;SDS011;31270;48.328;10.096;2022-10-29T04:23:53;11.47;;;6.63;;
45548;SDS011;31270;48.328;10.096;2022-10-29T04:26:18;12.50;;;6.47;;
45548;SDS011;31270;48.328;10.096;2022-10-29T04:28:47;10.03;;;6.33;;
45548;SDS011;31270;48.328;10.096;2022-10-29T04:31:13;16.93;;;6.03;;
45548;SDS011;31270;48.328;10.096;2022-10-29T04:33:39;15.97;;;6.63;;
45548;SDS011;31270;48.328;10.096;2022-10-29T04:36:04;13.47;;;6.47;;
45548;SDS011;31270;48.328;10.096;2022-10-29T04:38:30;12.00;;;6.07;;
45548;SDS011;31270;48.328;10.096;2022-10-29T04:40:59;10.47;;;6.00;;
45548;SDS011;31270;48.328;10.096;2022-10-29T04:43:26;11.87;;;6.37;;
45548;SDS011;31270;48.328;10.096;2022-10-29T04:45:52;12.10;;;7.03;;
45548;SDS011;31270;48.328;10.096;2022-10-29T04:48:19;11.97;;;6.03;;
45548;SDS011;31270;48.328;10.096;2022-10-29T04:50:45;12.33;;;5.73;;
45548;SDS011;31270;48.328;10.096;2022-10-29T04:53:11;10.10;;;6.80;;
45548;SDS011;31270;48.328;10.096;2022-10-29T04:55:37;8.93;;;6.57;;
45548;SDS011;31270;48.328;10.096;2022-10-29T04:58:04;10.33;;;6.23;;
45548;SDS011;31270;48.328;10.096;2022-10-29T05:00:30;12.53;;;6.50;;
45548;SDS011;31270;48.328;10.096;2022-10-29T05:02:56;14.17;;;6.90;;
45548;SDS011;31270;48.328;10.096;2022-10-29T05:05:22;12.53;;;6.13;;
45548;SDS011;31270;48.328;10.096;2022-10-29T05:07:48;12.93;;;7.47;;
45548;SDS011;31270;48.328;10.096;2022-10-29T05:10:21;12.07;;;6.37;;
45548;SDS011;31270;48.328;10.096;2022-10-29T05:12:49;11.23;;;6.63;;
45548;SDS011;31270;48.328;10.096;2022-10-29T05:15:27;12.07;;;6.40;;
45548;SDS011;31270;48.328;10.096;2022-10-29T05:17:54;10.17;;;6.30;;
45548;SDS011;31270;48.328;10.096;2022-10-29T05:20:20;9.17;;;6.33;;
45548;SDS011;31270;48.328;10.096;2022-10-29T05:22:46;9.97;;;6.50;;
45548;SDS011;31270;48.328;10.096;2022-10-29T05:25:12;10.33;;;6.60;;
45548;SDS011;31270;48.328;10.096;2022-10-29T05:27:38;12.63;;;6.30;;
45548;SDS011;31270;48.328;10.096;2022-10-29T05:30:04;14.00;;;6.20;;
45548;SDS011;31270;48.328;10.096;2022-10-29T05:32:31;10.50;;;6.27;;
45548;SDS011;31270;48.328;10.096;2022-10-29T05:34:56;14.20;;;6.77;;
45548;SDS011;31270;48.328;10.096;2022-10-29T05:37:22;10.80;;;6.40;;
45548;SDS011;31270;48.328;10.096;2022-10-29T05:39:49;12.57;;;5.70;;
45548;SDS011;31270;48.328;10.096;2022-10-29T05:42:15;9.13;;;6.30;;
45548;SDS011;31270;48.328;10.096;2022-10-29T05:44:41;11.50;;;6.40;;
45548;SDS011;31270;48.328;10.096;2022-10-29T05:47:07;18.20;;;6.47;;
45548;SDS011;31270;48.328;10.096;2022-10-29T05:49:32;9.27;;;6.10;;
45548;SDS011;31270;48.328;10.096;2022-10-29T05:51:58;9.53;;;5.77;;
45548;SDS011;31270;48.328;10.096;2022-10-29T05:54:24;12.13;;;6.50;;
45548;SDS011;31270;48.328;10.096;2022-10-29T05:56:49;15.77;;;6.23;;
45548;SDS011;31270;48.328;10.096;2022-10-29T05:59:15;11.57;;;5.87;;
45548;SDS011;31270;48.328;10.096;2022-10-29T06:01:40;10.97;;;6.10;;
45548;SDS011;31270;48.328;10.096;2022-10-29T06:04:06;11.77;;;6.23;;
45548;SDS011;31270;48.328;10.096;2022-10-29T06:06:31;11.63;;;6.27;;
45548;SDS011;31270;48.328;10.096;2022-10-29T06:08:57;10.07;;;6.30;;
45548;SDS011;31270;48.328;10.096;2022-10-29T06:11:23;10.57;;;5.60;;
45548;SDS011;31270;48.328;10.096;2022-10-29T06:13:49;11.80;;;5.83;;
45548;SDS011;31270;48.328;10.096;2022-10-29T06:16:15;13.57;;;5.37;;
45548;SDS011;31270;48.328;10.096;2022-10-29T06:18:40;11.33;;;5.80;;
45548;SDS011;31270;48.328;10.096;2022-10-29T06:21:06;13.17;;;5.87;;
45548;SDS011;31270;48.328;10.096;2022-10-29T06:23:32;11.97;;;5.57;;
45548;SDS011;31270;48.328;10.096;2022-10-29T06:25:58;13.37;;;6.33;;
45548;SDS011;31270;48.328;10.096;2022-10-29T06:28:25;11.90;;;5.67;;
45548;SDS011;31270;48.328;10.096;2022-10-29T06:30:51;11.13;;;5.80;;
45548;SDS011;31270;48.328;10.096;2022-10-29T06:33:16;12.40;;;5.63;;
45548;SDS011;31270;48.328;10.096;2022-10-29T06:35:43;11.47;;;5.47;;
45548;SDS011;31270;48.328;10.096;2022-10-29T06:38:09;14.97;;;6.20;;
45548;SDS011;31270;48.328;10.096;2022-10-29T06:40:35;13.83;;;6.17;;
45548;SDS011;31270;48.328;10.096;2022-10-29T06:43:04;9.50;;;6.10;;
45548;SDS011;31270;48.328;10.096;2022-10-29T06:45:32;9.53;;;5.20;;
45548;SDS011;31270;48.328;10.096;2022-10-29T06:47:58;11.90;;;5.83;;
45548;SDS011;31270;48.328;10.096;2022-10-29T06:50:24;14.90;;;5.87;;
45548;SDS011;31270;48.328;10.096;2022-10-29T06:52:52;12.67;;;5.60;;
45548;SDS011;31270;48.328;10.096;2022-10-29T06:55:19;14.03;;;5.90;;
45548;SDS011;31270;48.328;10.096;2022-10-29T06:57:44;11.33;;;6.00;;
45548;SDS011;31270;48.328;10.096;2022-10-29T07:00:10;13.33;;;6.63;;
45548;SDS011;31270;48.328;10.096;2022-10-29T07:02:36;10.93;;;5.20;;
45548;SDS011;31270;48.328;10.096;2022-10-29T07:05:02;18.83;;;5.87;;
45548;SDS011;31270;48.328;10.096;2022-10-29T07:07:28;14.57;;;6.27;;
45548;SDS011;31270;48.328;10.096;2022-10-29T07:09:53;10.27;;;5.17;;
45548;SDS011;31270;48.328;10.096;2022-10-29T07:12:19;15.40;;;6.00;;
45548;SDS011;31270;48.328;10.096;2022-10-29T07:14:44;11.17;;;5.73;;
45548;SDS011;31270;48.328;10.096;2022-10-29T07:17:10;11.17;;;6.00;;
45548;SDS011;31270;48.328;10.096;2022-10-29T07:19:36;12.77;;;5.67;;
45548;SDS011;31270;48.328;10.096;2022-10-29T07:22:01;9.43;;;5.80;;
45548;SDS011;31270;48.328;10.096;2022-10-29T07:24:27;14.13;;;6.00;;
45548;SDS011;31270;48.328;10.096;2022-10-29T07:26:52;11.47;;;5.53;;
45548;SDS011;31270;48.328;10.096;2022-10-29T07:29:18;15.53;;;6.07;;
45548;SDS011;31270;48.328;10.096;2022-10-29T07:31:44;11.13;;;5.70;;
45548;SDS011;31270;48.328;10.096;2022-10-29T07:34:09;13.10;;;6.63;;
45548;SDS011;31270;48.328;10.096;2022-10-29T07:36:35;10.60;;;5.87;;
45548;SDS011;31270;48.328;10.096;2022-10-29T07:39:01;10.70;;;6.10;;
45548;SDS011;31270;48.328;10.096;2022-10-29T07:41:27;11.93;;;5.47;;
45548;SDS011;31270;48.328;10.096;2022-10-29T07:43:53;13.00;;;6.03;;
45548;SDS011;31270;48.328;10.096;2022-10-29T07:46:19;13.03;;;5.80;;
45548;SDS011;31270;48.328;10.096;2022-10-29T07:48:44;13.67;;;5.43;;
45548;SDS011;31270;48.328;10.096;2022-10-29T07:51:11;8.63;;;4.70;;
45548;SDS011;31270;48.328;10.096;2022-10-29T07:53:36;11.10;;;4.80;;
45548;SDS011;31270;48.328;10.096;2022-10-29T07:56:02;14.60;;;4.67;;
45548;SDS011;31270;48.328;10.096;2022-10-29T07:58:28;17.50;;;5.23;;
45548;SDS011;31270;48.328;10.096;2022-10-29T08:00:53;14.80;;;4.83;;
45548;SDS011;31270;48.328;10.096;2022-10-29T08:03:19;12.17;;;5.13;;
45548;SDS011;31270;48.328;10.096;2022-10-29T08:05:45;13.70;;;4.50;;
45548;SDS011;31270;48.328;10.096;2022-10-29T08:08:13;8.20;;;4.13;;
45548;SDS011;31270;48.328;10.096;2022-10-29T08:10:38;10.27;;;4.63;;
45548;SDS011;31270;48.328;10.096;2022-10-29T08:13:04;12.67;;;4.23;;
45548;SDS011;31270;48.328;10.096;2022-10-29T08:15:31;17.87;;;5.17;;
45548;SDS011;31270;48.328;10.096;2022-10-29T08:17:59;12.00;;;4.35;;
45548;SDS011;31270;48.328;10.096;2022-10-29T08:20:26;8.15;;;5.13;;
45548;SDS011;31270;48.328;10.096;2022-10-29T08:22:52;13.15;;;4.10;;
45548;SDS011;31270;48.328;10.096;2022-10-29T08:25:18;12.55;;;4.28;;
45548;SDS011;31270;48.328;10.096;2022-10-29T08:27:44;9.52;;;4.70;;
45548;SDS011;31270;48.328;10.096;2022-10-29T08:30:22;11.15;;;5.32;;
45548;SDS011;31270;48.328;10.096;2022-10-29T08:32:48;11.23;;;5.00;;
45548;SDS011;31270;48.328;10.096;2022-10-29T08:35:13;15.00;;;4.45;;
45548;SDS011;31270;48.328;10.096;2022-10-29T08:37:42;9.30;;;4.50;;
45548;SDS011;31270;48.328;10.096;2022-10-29T08:40:12;14.43;;;5.13;;
45548;SDS011;31270;48.328;10.096;2022-10-29T08:43:02;13.50;;;5.10;;
45548;SDS011;31270;48.328;10.096;2022-10-29T08:48:15;15.70;;;5.03;;
45548;SDS011;31270;48.328;10.096;2022-10-29T08:50:58;13.20;;;5.15;;
45548;SDS011;31270;48.328;10.096;2022-10-29T08:53:38;11.68;;;5.07;;
45548;SDS011;31270;48.328;10.096;2022-10-29T08:56:13;10.60;;;5.18;;
45548;SDS011;31270;48.328;10.096;2022-10-29T08:58:54;15.32;;;4.90;;
45548;SDS011;31270;48.328;10.096;2022-10-29T09:01:25;15.07;;;4.90;;
45548;SDS011;31270;48.328;10.096;2022-10-29T09:03:51;12.98;;;5.07;;
45548;SDS011;31270;48.328;10.096;2022-10-29T09:12:08;12.52;;;4.95;;
45548;SDS011;31270;48.328;10.096;2022-10-29T09:14:56;11.25;;;4.75;;
45548;SDS011;31270;48.328;10.096;2022-10-29T09:17:48;10.98;;;4.32;;
45548;SDS011;31270;48.328;10.096;2022-10-29T09:20:42;12.10;;;4.25;;
45548;SDS011;31270;48.328;10.096;2022-10-29T09:23:16;10.85;;;4.57;;
45548;SDS011;31270;48.328;10.096;2022-10-29T09:26:15;11.15;;;4.22;;
45548;SDS011;31270;48.328;10.096;2022-10-29T09:28:52;9.77;;;4.07;;
45548;SDS011;31270;48.328;10.096;2022-10-29T09:31:44;10.63;;;3.80;;
45548;SDS011;31270;48.328;10.096;2022-10-29T09:34:39;11.20;;;4.05;;
45548;SDS011;31270;48.328;10.096;2022-10-29T09:37:14;11.25;;;4.15;;
45548;SDS011;31270;48.328;10.096;2022-10-29T09:39:56;13.68;;;4.07;;
45548;SDS011;31270;48.328;10.096;2022-10-29T09:42:34;9.20;;;3.88;;
45548;SDS011;31270;48.328;10.096;2022-10-29T09:45:04;9.00;;;3.65;;
45548;SDS011;31270;48.328;10.096;2022-10-29T09:50:24;11.77;;;4.10;;
45548;SDS011;31270;48.328;10.096;2022-10-29T09:53:04;8.70;;;3.65;;
45548;SDS011;31270;48.328;10.096;2022-10-29T09:58:13;11.25;;;3.33;;
45548;SDS011;31270;48.328;10.096;2022-10-29T10:00:44;11.32;;;4.22;;
45548;SDS011;31270;48.328;10.096;2022-10-29T10:03:12;11.30;;;3.90;;
45548;SDS011;31270;48.328;10.096;2022-10-29T10:05:58;10.98;;;3.65;;
45548;SDS011;31270;48.328;10.096;2022-10-29T10:08:26;17.45;;;4.57;;
45548;SDS011;31270;48.328;10.096;2022-10-29T10:10:53;9.43;;;3.30;;
45548;SDS011;31270;48.328;10.096;2022-10-29T10:13:25;9.63;;;3.78;;
45548;SDS011;31270;48.328;10.096;2022-10-29T10:16:15;14.02;;;3.65;;
45548;SDS011;31270;48.328;10.096;2022-10-29T10:18:48;7.97;;;3.65;;
45548;SDS011;31270;48.328;10.096;2022-10-29T10:21:27;10.35;;;3.63;;
45548;SDS011;31270;48.328;10.096;2022-10-29T10:23:54;13.23;;;3.42;;
45548;SDS011;31270;48.328;10.096;2022-10-29T10:34:26;11.95;;;3.53;;
45548;SDS011;31270;48.328;10.096;2022-10-29T10:37:02;8.02;;;3.28;;
45548;SDS011;31270;48.328;10.096;2022-10-29T10:39:36;7.25;;;3.35;;
45548;SDS011;31270;48.328;10.096;2022-10-29T10:42:26;11.13;;;4.15;;
45548;SDS011;31270;48.328;10.096;2022-10-29T10:44:55;11.10;;;3.95;;
45548;SDS011;31270;48.328;10.096;2022-10-29T10:47:25;12.27;;;4.00;;
45548;SDS011;31270;48.328;10.096;2022-10-29T10:49:53;12.25;;;4.28;;
45548;SDS011;31270;48.328;10.096;2022-10-29T10:52:34;14.52;;;3.75;;
45548;SDS011;31270;48.328;10.096;2022-10-29T10:55:06;10.68;;;4.18;;
45548;SDS011;31270;48.328;10.096;2022-10-29T10:57:41;9.43;;;3.28;;
45548;SDS011;31270;48.328;10.096;2022-10-29T11:00:20;14.32;;;3.75;;
45548;SDS011;31270;48.328;10.096;2022-10-29T11:02:58;8.32;;;3.70;;
45548;SDS011;31270;48.328;10.096;2022-10-29T11:05:39;10.02;;;3.75;;
45548;SDS011;31270;48.328;10.096;2022-10-29T11:10:51;13.77;;;3.67;;
45548;SDS011;31270;48.328;10.096;2022-10-29T11:13:23;14.43;;;3.40;;
45548;SDS011;31270;48.328;10.096;2022-10-29T11:15:53;7.03;;;3.65;;
45548;SDS011;31270;48.328;10.096;2022-10-29T11:18:22;9.05;;;3.65;;
45548;SDS011;31270;48.328;10.096;2022-10-29T11:21:20;9.15;;;3.03;;
45548;SDS011;31270;48.328;10.096;2022-10-29T11:26:45;6.50;;;3.00;;
45548;SDS011;31270;48.328;10.096;2022-10-29T11:36:10;13.63;;;3.20;;
45548;SDS011;31270;48.328;10.096;2022-10-29T11:38:16;10.93;;;3.20;;
45548;SDS011;31270;48.328;10.096;2022-10-29T11:40:54;10.98;;;3.13;;
45548;SDS011;31270;48.328;10.096;2022-10-29T11:43:36;9.85;;;3.50;;
45548;SDS011;31270;48.328;10.096;2022-10-29T11:51:38;10.80;;;2.95;;
45548;SDS011;31270;48.328;10.096;2022-10-29T11:54:35;11.90;;;3.40;;
45548;SDS011;31270;48.328;10.096;2022-10-29T11:57:11;10.38;;;3.20;;
45548;SDS011;31270;48.328;10.096;2022-10-29T12:02:40;16.20;;;3.60;;
45548;SDS011;31270;48.328;10.096;2022-10-29T12:14:18;9.65;;;4.10;;
45548;SDS011;31270;48.328;10.096;2022-10-29T12:17:06;12.25;;;3.72;;
45548;SDS011;31270;48.328;10.096;2022-10-29T12:19:50;14.07;;;3.60;;
45548;SDS011;31270;48.328;10.096;2022-10-29T12:25:17;11.05;;;3.38;;
45548;SDS011;31270;48.328;10.096;2022-10-29T12:28:00;9.77;;;3.58;;
45548;SDS011;31270;48.328;10.096;2022-10-29T12:30:45;11.45;;;3.20;;
45548;SDS011;31270;48.328;10.096;2022-10-29T12:33:42;6.95;;;3.30;;
45548;SDS011;31270;48.328;10.096;2022-10-29T12:36:27;8.40;;;3.35;;
45548;SDS011;31270;48.328;10.096;2022-10-29T12:38:59;7.90;;;3.15;;
45548;SDS011;31270;48.328;10.096;2022-10-29T12:42:00;15.98;;;4.07;;
45548;SDS011;31270;48.328;10.096;2022-10-29T12:44:29;7.20;;;3.30;;
45548;SDS011;31270;48.328;10.096;2022-10-29T12:52:42;14.38;;;3.25;;
45548;SDS011;31270;48.328;10.096;2022-10-29T12:55:12;10.15;;;3.92;;
45548;SDS011;31270;48.328;10.096;2022-10-29T12:57:41;13.45;;;3.38;;
45548;SDS011;31270;48.328;10.096;2022-10-29T13:02:47;8.10;;;3.83;;
45548;SDS011;31270;48.328;10.096;2022-10-29T13:05:16;12.82;;;4.22;;
45548;SDS011;31270;48.328;10.096;2022-10-29T13:20:51;9.95;;;3.30;;
45548;SDS011;31270;48.328;10.096;2022-10-29T13:25:46;12.07;;;3.47;;
45548;SDS011;31270;48.328;10.096;2022-10-29T13:30:39;8.10;;;3.25;;
45548;SDS011;31270;48.328;10.096;2022-10-29T13:36:00;8.73;;;3.58;;
45548;SDS011;31270;48.328;10.096;2022-10-29T13:41:18;10.77;;;2.90;;
45548;SDS011;31270;48.328;10.096;2022-10-29T13:46:48;12.88;;;3.72;;
45548;SDS011;31270;48.328;10.096;2022-10-29T13:49:44;12.68;;;3.60;;
45548;SDS011;31270;48.328;10.096;2022-10-29T13:52:13;8.52;;;3.85;;
45548;SDS011;31270;48.328;10.096;2022-10-29T13:59:48;9.13;;;3.50;;
45548;SDS011;31270;48.328;10.096;2022-10-29T14:02:18;12.15;;;3.70;;
45548;SDS011;31270;48.328;10.096;2022-10-29T14:04:55;12.93;;;4.20;;
45548;SDS011;31270;48.328;10.096;2022-10-29T14:07:33;9.88;;;3.42;;
45548;SDS011;31270;48.328;10.096;2022-10-29T14:10:06;11.10;;;4.00;;
45548;SDS011;31270;48.328;10.096;2022-10-29T14:13:23;11.95;;;4.18;;
45548;SDS011;31270;48.328;10.096;2022-10-29T14:16:02;14.10;;;4.20;;
45548;SDS011;31270;48.328;10.096;2022-10-29T14:18:35;10.65;;;3.85;;
45548;SDS011;31270;48.328;10.096;2022-10-29T14:21:01;10.93;;;4.05;;
45548;SDS011;31270;48.328;10.096;2022-10-29T14:23:29;8.15;;;3.60;;
45548;SDS011;31270;48.328;10.096;2022-10-29T14:25:57;17.63;;;3.60;;
45548;SDS011;31270;48.328;10.096;2022-10-29T14:28:25;12.40;;;3.70;;
45548;SDS011;31270;48.328;10.096;2022-10-29T14:31:11;11.93;;;4.50;;
45548;SDS011;31270;48.328;10.096;2022-10-29T14:33:38;11.05;;;3.70;;
45548;SDS011;31270;48.328;10.096;2022-10-29T14:36:15;8.77;;;3.22;;
45548;SDS011;31270;48.328;10.096;2022-10-29T14:41:23;10.30;;;3.47;;
45548;SDS011;31270;48.328;10.096;2022-10-29T14:43:51;12.50;;;3.47;;
45548;SDS011;31270;48.328;10.096;2022-10-29T14:46:25;10.13;;;3.63;;
45548;SDS011;31270;48.328;10.096;2022-10-29T14:48:54;12.23;;;3.75;;
45548;SDS011;31270;48.328;10.096;2022-10-29T14:51:52;10.52;;;3.63;;
45548;SDS011;31270;48.328;10.096;2022-10-29T14:54:21;10.90;;;3.58;;
45548;SDS011;31270;48.328;10.096;2022-10-29T14:56:50;11.27;;;3.67;;
45548;SDS011;31270;48.328;10.096;2022-10-29T14:59:21;7.85;;;3.35;;
45548;SDS011;31270;48.328;10.096;2022-10-29T15:01:51;9.25;;;3.17;;
45548;SDS011;31270;48.328;10.096;2022-10-29T15:04:20;9.55;;;3.60;;
45548;SDS011;31270;48.328;10.096;2022-10-29T15:06:48;15.45;;;3.85;;
45548;SDS011;31270;48.328;10.096;2022-10-29T15:09:16;12.65;;;3.03;;
45548;SDS011;31270;48.328;10.096;2022-10-29T15:12:01;12.65;;;3.72;;
45548;SDS011;31270;48.328;10.096;2022-10-29T15:17:22;11.02;;;3.65;;
45548;SDS011;31270;48.328;10.096;2022-10-29T15:20:01;12.23;;;3.90;;
45548;SDS011;31270;48.328;10.096;2022-10-29T15:22:38;8.23;;;3.70;;
45548;SDS011;31270;48.328;10.096;2022-10-29T15:25:07;9.95;;;3.10;;
45548;SDS011;31270;48.328;10.096;2022-10-29T15:27:46;10.60;;;4.22;;
45548;SDS011;31270;48.328;10.096;2022-10-29T15:30:20;8.57;;;3.92;;
45548;SDS011;31270;48.328;10.096;2022-10-29T15:32:56;15.18;;;3.72;;
45548;SDS011;31270;48.328;10.096;2022-10-29T15:35:23;14.07;;;4.43;;
45548;SDS011;31270;48.328;10.096;2022-10-29T15:37:49;12.02;;;4.68;;
45548;SDS011;31270;48.328;10.096;2022-10-29T15:42:45;24.77;;;15.10;;
45548;SDS011;31270;48.328;10.096;2022-10-29T15:47:40;21.83;;;12.70;;
45548;SDS011;31270;48.328;10.096;2022-10-29T15:50:09;34.38;;;15.10;;
45548;SDS011;31270;48.328;10.096;2022-10-29T15:52:38;26.77;;;12.20;;
45548;SDS011;31270;48.328;10.096;2022-10-29T15:55:34;15.40;;;4.65;;
45548;SDS011;31270;48.328;10.096;2022-10-29T15:58:08;12.82;;;4.25;;
45548;SDS011;31270;48.328;10.096;2022-10-29T16:00:41;11.88;;;3.90;;
45548;SDS011;31270;48.328;10.096;2022-10-29T16:05:44;18.23;;;5.70;;
45548;SDS011;31270;48.328;10.096;2022-10-29T16:08:27;12.25;;;5.30;;
45548;SDS011;31270;48.328;10.096;2022-10-29T16:11:01;13.55;;;5.50;;
45548;SDS011;31270;48.328;10.096;2022-10-29T16:13:29;14.15;;;5.10;;
45548;SDS011;31270;48.328;10.096;2022-10-29T16:15:56;13.52;;;6.13;;
45548;SDS011;31270;48.328;10.096;2022-10-29T16:18:21;14.68;;;8.00;;
45548;SDS011;31270;48.328;10.096;2022-10-29T16:20:47;20.92;;;9.95;;
45548;SDS011;31270;48.328;10.096;2022-10-29T16:23:15;16.13;;;7.55;;
45548;SDS011;31270;48.328;10.096;2022-10-29T16:25:41;16.73;;;7.93;;
45548;SDS011;31270;48.328;10.096;2022-10-29T16:28:07;60.85;;;31.23;;
45548;SDS011;31270;48.328;10.096;2022-10-29T16:30:33;30.17;;;16.92;;
45548;SDS011;31270;48.328;10.096;2022-10-29T16:33:01;14.23;;;5.82;;
45548;SDS011;31270;48.328;10.096;2022-10-29T16:35:27;15.65;;;5.32;;
45548;SDS011;31270;48.328;10.096;2022-10-29T16:37:53;12.18;;;5.30;;
45548;SDS011;31270;48.328;10.096;2022-10-29T16:40:21;14.18;;;5.20;;
45548;SDS011;31270;48.328;10.096;2022-10-29T16:42:48;11.05;;;4.72;;
45548;SDS011;31270;48.328;10.096;2022-10-29T16:45:19;15.25;;;5.03;;
45548;SDS011;31270;48.328;10.096;2022-10-29T16:47:47;10.85;;;4.90;;
45548;SDS011;31270;48.328;10.096;2022-10-29T16:50:14;11.88;;;5.10;;